KOZR

Cairns AAF (Fort Rucker) Airport

Fort Rucker/Ozark, Alabama, USA
METAR KOZR 241456Z AUTO 29006KT 10SM FEW023 FEW180 31/23 A3006 RMK AO2 SLP178 T03050234 51010
Observed Flight Rules
Jun-24 @ 14:56 UTC (11 minutes ago) Visual Flight Rules
Wind Visibility Clouds
290° at 6 knots 10 miles
  • Few at 2,300' AGL
  • Few at 18,000' AGL
Temperatures Readings
Current 31°C / 88°F
Dewpoint 23°C / 73°F
Humidity 62%
Altimeter 30.06" Hg
Pressure 1017.8 hPa
Elevation 93
METAR KOZR 241456Z AUTO 29006KT 10SM FEW023 FEW180 31/23 A3006 RMK AO2 SLP178 T03050234 51010
Observed Flight Rules
Jun-24 @ 14:56 UTC
(11 minutes ago)
VFR
Wind Visibility
290° at 6 knots 10 miles
Clouds
  • Few at 2,300' AGL
  • Few at 18,000' AGL
Temperature Dewpoint
31°C / 88°F 23°C / 73°F
Humidity Altimeter Pressure
62% 30.06" Hg 1017.8 hPa